Time;durP1;ratioP1;P1;durP2;ratioP2;P2;SDS_P1;SDS_P2;PMS_P1;PMS_P2;Temp;Humidity;BMP_temperature;BMP_pressure;BME280_temperature;BME280_humidity;BME280_pressure;Samples;Min_cycle;Max_cycle;Signal;HPM_P1;HPM_P2
2022/08/11 00:01:51;;;;;;;1.20;0.50;;;24.00;30.00;;;;;;2287503;55;20957;-72
2022/08/11 00:04:20;;;;;;;2.42;0.50;;;24.00;30.00;;;;;;2319230;55;20951;-73
2022/08/11 00:06:46;;;;;;;1.20;0.60;;;23.90;30.00;;;;;;2357958;55;20947;-72
2022/08/11 00:09:18;;;;;;;3.17;0.65;;;23.90;30.20;;;;;;2405118;55;21008;-72
2022/08/11 00:11:50;;;;;;;1.17;0.52;;;23.90;30.30;;;;;;2286472;55;20978;-73
2022/08/11 00:14:58;;;;;;;2.72;0.85;;;23.90;30.40;;;;;;2266908;55;20963;-71
2022/08/11 00:17:32;;;;;;;1.87;0.70;;;23.90;30.50;;;;;;2286302;55;20962;-72
2022/08/11 00:20:12;;;;;;;1.15;0.43;;;23.90;30.40;;;;;;2513027;55;21783;-73
2022/08/11 00:22:43;;;;;;;1.37;0.57;;;23.80;30.50;;;;;;2287435;55;21895;-73
2022/08/11 00:25:27;;;;;;;1.05;0.50;;;23.80;30.30;;;;;;2406313;55;20994;-70
2022/08/11 00:27:54;;;;;;;2.65;0.60;;;23.80;30.40;;;;;;2285470;55;21022;-71
2022/08/11 00:30:23;;;;;;;1.25;0.55;;;23.80;30.50;;;;;;2466226;55;20963;-71
2022/08/11 00:32:54;;;;;;;1.08;0.50;;;23.80;30.60;;;;;;2285632;55;20926;-73
2022/08/11 00:35:26;;;;;;;0.93;0.50;;;23.70;30.80;;;;;;2302992;55;20970;-71
2022/08/11 00:37:53;;;;;;;0.85;0.47;;;23.70;30.80;;;;;;2281728;55;20938;-72
2022/08/11 00:40:33;;;;;;;2.12;0.43;;;23.70;30.80;;;;;;2286647;55;21022;-71
2022/08/11 00:44:51;;;;;;;1.77;0.60;;;23.70;31.10;;;;;;2287552;55;21022;-71
2022/08/11 00:47:54;;;;;;;1.27;0.57;;;23.70;31.20;;;;;;2288044;55;20979;-73
2022/08/11 00:51:04;;;;;;;1.15;0.50;;;23.60;31.20;;;;;;2271808;55;21010;-72
2022/08/11 00:57:04;;;;;;;1.52;0.60;;;23.60;31.10;;;;;;2284619;54;20949;-73
2022/08/11 01:00:18;;;;;;;2.97;0.60;;;23.60;31.20;;;;;;2300249;54;20956;-71
2022/08/11 01:03:52;;;;;;;1.23;0.50;;;23.50;31.30;;;;;;2296676;54;21011;-71
2022/08/11 01:09:48;;;;;;;0.98;0.45;;;23.50;31.40;;;;;;2327196;54;21948;-71
2022/08/11 01:12:35;;;;;;;0.70;0.40;;;23.50;31.40;;;;;;2295325;54;21795;-72
2022/08/11 01:18:52;;;;;;;1.42;0.50;;;23.40;31.10;;;;;;2334686;54;21834;-73
2022/08/11 01:21:48;;;;;;;1.45;0.50;;;23.40;31.30;;;;;;2296184;54;21038;-71
2022/08/11 01:31:21;;;;;;;1.02;0.43;;;23.30;31.30;;;;;;2289668;54;20934;-71
2022/08/11 01:34:19;;;;;;;1.05;0.37;;;23.30;31.60;;;;;;2362266;54;21477;-71
2022/08/11 01:47:50;;;;;;;1.60;0.50;;;23.10;31.70;;;;;;2296533;54;20995;-72
2022/08/11 01:53:12;;;;;;;0.68;0.37;;;23.00;31.90;;;;;;2304366;54;20999;-73
2022/08/11 01:56:12;;;;;;;1.50;0.40;;;23.00;32.00;;;;;;2309385;54;20960;-71
2022/08/11 02:00:41;;;;;;;1.10;0.40;;;22.90;31.90;;;;;;2294296;54;21035;-71
2022/08/11 02:03:13;;;;;;;2.33;0.60;;;22.80;32.00;;;;;;2297489;54;21071;-71
2022/08/11 02:07:37;;;;;;;0.80;0.40;;;22.80;32.00;;;;;;2469285;54;20992;-70
2022/08/11 02:13:58;;;;;;;0.75;0.35;;;22.80;32.30;;;;;;2298893;54;21026;-71
2022/08/11 02:17:25;;;;;;;0.73;0.40;;;22.70;32.20;;;;;;2362162;54;21530;-71
2022/08/11 02:27:17;;;;;;;0.85;0.40;;;22.60;32.30;;;;;;2290138;55;21055;-70
2022/08/11 02:30:06;;;;;;;0.50;0.30;;;22.60;32.90;;;;;;2394728;54;21064;-73
2022/08/11 02:36:21;;;;;;;1.83;0.80;;;22.60;33.30;;;;;;2301325;54;21923;-71
2022/08/11 02:39:09;;;;;;;1.70;0.75;;;22.50;33.50;;;;;;2298989;54;20924;-72
2022/08/11 02:44:47;;;;;;;1.27;0.68;;;22.40;33.50;;;;;;2388036;54;21131;-70
2022/08/11 02:47:38;;;;;;;2.58;0.90;;;22.40;33.30;;;;;;2304573;54;20999;-71
2022/08/11 02:50:21;;;;;;;1.67;0.70;;;22.40;33.90;;;;;;2452683;54;21542;-70
2022/08/11 02:56:13;;;;;;;2.17;0.60;;;22.50;33.60;;;;;;2299407;54;20979;-72
2022/08/11 03:05:46;;;;;;;0.82;0.40;;;22.40;33.70;;;;;;2295300;54;20932;-71
2022/08/11 03:08:18;;;;;;;1.08;0.52;;;22.40;33.30;;;;;;2426216;54;20911;-72
2022/08/11 03:17:15;;;;;;;1.42;0.60;;;22.20;33.30;;;;;;2268713;55;20970;-69
2022/08/11 03:25:02;;;;;;;1.30;0.60;;;22.20;33.60;;;;;;2285630;55;21744;-71
2022/08/11 03:27:45;;;;;;;1.37;0.50;;;22.10;33.80;;;;;;2359317;55;20975;-72
2022/08/11 03:34:02;;;;;;;1.40;0.65;;;22.10;33.70;;;;;;2266197;55;20955;-70
2022/08/11 03:36:50;;;;;;;1.65;0.60;;;22.00;34.00;;;;;;2287408;55;20957;-70
2022/08/11 03:39:36;;;;;;;1.77;0.80;;;22.00;34.20;;;;;;2513216;55;21509;-71
2022/08/11 03:45:44;;;;;;;9.82;1.10;;;21.90;34.20;;;;;;2288536;55;21059;-72
2022/08/11 03:48:20;;;;;;;2.37;0.70;;;21.80;34.70;;;;;;2287395;55;20950;-71
2022/08/11 03:51:44;;;;;;;1.73;0.73;;;21.80;34.60;;;;;;2290535;55;21050;-70
2022/08/11 03:58:48;;;;;;;2.12;0.80;;;21.80;35.60;;;;;;2285677;55;22011;-71
2022/08/11 04:02:53;;;;;;;1.60;0.65;;;21.80;35.10;;;;;;2276274;55;21011;-71
2022/08/11 04:06:08;;;;;;;2.42;0.93;;;21.80;35.20;;;;;;2311121;54;21023;-69
2022/08/11 04:08:56;;;;;;;1.52;0.55;;;21.70;35.40;;;;;;2328506;54;21048;-73
2022/08/11 04:12:28;;;;;;;2.53;0.65;;;21.70;35.30;;;;;;2526559;54;20950;-71
2022/08/11 04:17:41;;;;;;;1.40;0.70;;;21.70;35.80;;;;;;2396297;54;21027;-69
2022/08/11 04:20:18;;;;;;;1.58;0.60;;;21.60;35.70;;;;;;2288275;54;21014;-71
2022/08/11 04:26:42;;;;;;;1.52;0.62;;;21.60;35.40;;;;;;2289462;54;20953;-71
2022/08/11 04:34:23;;;;;;;1.65;0.60;;;21.50;35.50;;;;;;2313273;54;21431;-73
2022/08/11 04:38:45;;;;;;;1.67;0.75;;;21.40;35.40;;;;;;2297577;54;21082;-71
2022/08/11 04:44:06;;;;;;;4.07;0.90;;;21.30;36.00;;;;;;2444846;54;21721;-70
2022/08/11 05:04:04;;;;;;;4.50;1.00;;;21.20;36.90;;;;;;2283302;54;21313;-71
2022/08/11 05:06:56;;;;;;;1.67;0.65;;;21.20;37.00;;;;;;2287656;55;21781;-73
2022/08/11 05:10:56;;;;;;;2.37;0.80;;;21.20;37.00;;;;;;2268565;55;20988;-71
2022/08/11 05:36:42;;;;;;;2.10;0.90;;;20.90;37.20;;;;;;2276274;55;21014;-70
2022/08/11 05:58:39;;;;;;;7.70;1.10;;;20.90;38.80;;;;;;2285051;55;20927;-70
2022/08/11 06:01:09;;;;;;;3.17;1.17;;;20.90;38.60;;;;;;2281014;55;21037;-71
2022/08/11 06:04:12;;;;;;;2.83;1.08;;;21.00;38.90;;;;;;2492170;54;21034;-71
2022/08/11 06:07:39;;;;;;;2.85;1.10;;;21.00;38.90;;;;;;2291176;55;21046;-71
2022/08/11 06:10:06;;;;;;;2.87;1.00;;;21.00;39.80;;;;;;2285811;55;21050;-71
2022/08/11 06:12:36;;;;;;;1.83;0.90;;;21.00;39.00;;;;;;2290383;55;21002;-71
2022/08/11 06:15:04;;;;;;;2.60;0.70;;;21.10;39.20;;;;;;2394977;54;21074;-71
2022/08/11 06:17:32;;;;;;;3.35;1.05;;;21.10;39.10;;;;;;2286016;55;21002;-71
2022/08/11 06:20:03;;;;;;;2.40;1.10;;;21.10;39.40;;;;;;2361361;54;21001;-71
2022/08/11 06:22:29;;;;;;;2.53;1.48;;;21.20;39.60;;;;;;2287375;55;21018;-70
2022/08/11 06:25:00;;;;;;;3.62;1.30;;;21.20;39.70;;;;;;2511216;54;20934;-69
2022/08/11 06:27:32;;;;;;;2.70;1.20;;;21.20;39.80;;;;;;2249838;55;20999;-73
2022/08/11 06:29:58;;;;;;;2.90;1.33;;;21.20;39.80;;;;;;2260201;56;20991;-72
2022/08/11 06:32:31;;;;;;;3.12;1.05;;;21.30;39.80;;;;;;2285129;55;21026;-72
2022/08/11 06:35:21;;;;;;;2.28;1.02;;;21.40;40.10;;;;;;2342266;55;20978;-71
2022/08/11 06:47:03;;;;;;;1.87;0.80;;;21.50;39.80;;;;;;2473493;55;21380;-69
2022/08/11 06:52:19;;;;;;;1.62;0.65;;;21.80;39.80;;;;;;2284816;55;20966;-71
2022/08/11 06:54:56;;;;;;;1.83;0.98;;;21.80;39.70;;;;;;2285807;55;21026;-71
2022/08/11 07:00:43;;;;;;;1.73;0.90;;;22.00;40.20;;;;;;2284880;55;20973;-70
2022/08/11 07:03:10;;;;;;;2.55;1.05;;;22.00;40.30;;;;;;2344175;55;20965;-69
2022/08/11 07:06:09;;;;;;;2.05;0.90;;;22.10;40.30;;;;;;2282101;55;20954;-71
2022/08/11 07:16:25;;;;;;;2.00;0.90;;;22.50;40.50;;;;;;2359131;55;21465;-71
2022/08/11 07:30:07;;;;;;;2.97;1.00;;;23.10;40.90;;;;;;2286238;55;21020;-74
2022/08/11 07:32:38;;;;;;;1.50;0.77;;;23.20;40.90;;;;;;2415108;55;21543;-72
2022/08/11 07:35:15;;;;;;;2.87;1.10;;;23.40;41.20;;;;;;2272257;54;20967;-75
2022/08/11 07:37:46;;;;;;;2.80;1.20;;;23.50;41.60;;;;;;2282907;55;20958;-72
2022/08/11 07:40:18;;;;;;;2.70;1.20;;;23.60;41.20;;;;;;2275091;55;21912;-71
2022/08/11 07:42:45;;;;;;;3.47;1.30;;;23.80;41.10;;;;;;2429725;55;20997;-72
2022/08/11 07:53:29;;;;;;;2.35;1.10;;;24.30;41.10;;;;;;2276457;55;21439;-72
2022/08/11 07:55:57;;;;;;;6.47;1.40;;;24.40;41.00;;;;;;2288457;55;21085;-71
2022/08/11 08:17:50;;;;;;;2.80;1.27;;;25.50;40.20;;;;;;2280684;55;21845;-73
2022/08/11 08:20:18;;;;;;;2.55;1.12;;;25.70;40.20;;;;;;2296529;55;21770;-73
2022/08/11 08:22:48;;;;;;;2.78;1.23;;;25.80;40.20;;;;;;2281994;55;20958;-72
2022/08/11 08:25:16;;;;;;;3.00;1.17;;;25.90;40.10;;;;;;2363844;54;28808;-72
2022/08/11 08:27:44;;;;;;;3.40;1.20;;;26.10;39.90;;;;;;2281833;55;20990;-72
2022/08/11 08:32:59;;;;;;;2.50;1.23;;;26.30;39.50;;;;;;2255970;55;20994;-74
2022/08/11 08:35:26;;;;;;;2.37;1.10;;;26.50;39.30;;;;;;2390747;54;20961;-72
2022/08/11 08:38:02;;;;;;;2.85;0.82;;;26.60;39.10;;;;;;2275635;56;21034;-72
2022/08/11 08:40:28;;;;;;;;;;;26.80;38.90;;;;;;2470010;55;22204;-73
2022/08/11 08:42:57;;;;;;;1.87;1.05;;;26.90;38.80;;;;;;2256234;56;20085;-73
2022/08/11 08:45:24;;;;;;;2.00;0.98;;;27.10;38.70;;;;;;2290657;55;21023;-74
2022/08/11 08:48:00;;;;;;;2.17;0.88;;;27.20;38.40;;;;;;2251418;56;20940;-72
2022/08/11 08:53:20;;;;;;;3.42;1.00;;;27.50;37.90;;;;;;2254393;56;21041;-74
2022/08/11 08:55:46;;;;;;;1.08;0.57;;;27.60;37.40;;;;;;2255914;56;21071;-72
2022/08/11 08:58:14;;;;;;;1.87;0.80;;;27.80;37.00;;;;;;2251340;56;21051;-72
2022/08/11 09:00:43;;;;;;;2.65;0.95;;;27.90;36.50;;;;;;2280783;56;21086;-71
2022/08/11 09:03:10;;;;;;;2.10;0.85;;;28.00;36.10;;;;;;2256337;56;21044;-72
2022/08/11 09:05:49;;;;;;;2.60;0.80;;;28.10;35.70;;;;;;2253117;56;21087;-73
2022/08/11 09:08:17;;;;;;;1.92;0.80;;;28.30;35.40;;;;;;2257704;56;21612;-74
2022/08/11 09:10:45;;;;;;;3.35;0.68;;;28.30;35.00;;;;;;2252869;56;20962;-72
2022/08/11 09:13:12;;;;;;;1.60;0.70;;;28.50;35.00;;;;;;2287798;55;21811;-73
2022/08/11 09:15:39;;;;;;;1.70;0.73;;;28.60;34.90;;;;;;2331155;56;21017;-74
2022/08/11 09:18:08;;;;;;;1.65;0.75;;;28.70;34.50;;;;;;2257031;56;21457;-73
2022/08/11 09:20:37;;;;;;;1.45;0.60;;;28.80;34.10;;;;;;2475972;55;20956;-73
2022/08/11 09:29:09;;;;;;;1.83;0.77;;;29.30;33.40;;;;;;2319103;55;21037;-72
2022/08/11 09:31:36;;;;;;;1.98;0.75;;;29.40;33.10;;;;;;2473544;55;21034;-73
2022/08/11 09:34:05;;;;;;;1.70;0.70;;;29.50;33.00;;;;;;2260349;56;21114;-72
2022/08/11 09:42:05;;;;;;;2.58;0.82;;;29.80;32.20;;;;;;2349056;55;21066;-72
2022/08/11 09:44:48;;;;;;;1.62;0.68;;;29.90;32.20;;;;;;2235593;56;21022;-72
2022/08/11 09:47:30;;;;;;;1.90;0.80;;;29.90;32.00;;;;;;2366846;55;21085;-71
2022/08/11 09:50:00;;;;;;;1.62;0.80;;;30.10;31.40;;;;;;2473770;55;21046;-73
2022/08/11 09:52:28;;;;;;;1.90;0.62;;;30.20;31.20;;;;;;2284069;56;20982;-72
2022/08/11 09:54:55;;;;;;;2.15;0.77;;;30.30;31.30;;;;;;2250764;56;21016;-72
2022/08/11 10:01:27;;;;;;;1.95;0.75;;;30.40;31.20;;;;;;2255133;56;21051;-72
2022/08/11 10:04:05;;;;;;;2.58;0.60;;;30.50;31.00;;;;;;2475545;55;21852;-72
2022/08/11 10:09:19;;;;;;;1.42;0.60;;;30.70;30.70;;;;;;2429315;56;21219;-72
2022/08/11 10:11:47;;;;;;;1.35;0.60;;;30.80;30.40;;;;;;2256071;56;21095;-72
2022/08/11 10:17:03;;;;;;;1.95;0.60;;;30.90;30.20;;;;;;2258884;56;21047;-73
2022/08/11 10:19:30;;;;;;;1.95;0.70;;;30.90;30.00;;;;;;2349166;56;21057;-74
2022/08/11 10:27:26;;;;;;;1.98;0.65;;;31.10;29.80;;;;;;2253896;56;21060;-73
2022/08/11 10:35:26;;;;;;;2.08;0.80;;;31.40;29.60;;;;;;2472878;55;20999;-75
2022/08/11 10:37:53;;;;;;;1.70;0.80;;;31.40;29.60;;;;;;2255834;56;21076;-72
2022/08/11 10:40:22;;;;;;;2.50;0.80;;;31.50;29.50;;;;;;2373186;56;21026;-72
2022/08/11 10:43:12;;;;;;;1.37;0.60;;;31.60;29.10;;;;;;2290194;56;21381;-72
2022/08/11 10:59:53;;;;;;;2.12;0.80;;;32.00;28.50;;;;;;2289084;56;21097;-72
2022/08/11 11:02:20;;;;;;;2.03;0.88;;;32.10;28.30;;;;;;2255492;56;20979;-71
2022/08/11 11:05:08;;;;;;;1.10;0.57;;;32.10;28.40;;;;;;2253645;56;21903;-72
2022/08/11 11:07:47;;;;;;;1.50;0.70;;;32.20;28.10;;;;;;2253728;56;21008;-72
2022/08/11 11:10:14;;;;;;;2.37;0.73;;;32.20;28.10;;;;;;2454964;55;20965;-74
2022/08/11 11:18:23;;;;;;;1.40;0.62;;;32.40;27.90;;;;;;2245647;56;21919;-72
2022/08/11 11:21:09;;;;;;;2.22;0.73;;;32.50;27.90;;;;;;2233646;56;20964;-72
2022/08/11 11:27:21;;;;;;;1.77;0.70;;;32.60;27.80;;;;;;2474940;55;21772;-72
2022/08/11 11:30:07;;;;;;;1.67;0.70;;;32.80;28.00;;;;;;2482102;55;21099;-72
2022/08/11 11:34:13;;;;;;;2.12;0.70;;;32.80;27.70;;;;;;2261912;56;21902;-73
2022/08/11 11:36:48;;;;;;;1.33;0.60;;;32.90;28.40;;;;;;2320161;55;21030;-72
2022/08/11 11:39:22;;;;;;;1.33;0.60;;;32.90;27.60;;;;;;2236857;56;21067;-71
2022/08/11 11:41:50;;;;;;;1.55;0.70;;;32.90;27.50;;;;;;2238831;56;20990;-71
2022/08/11 11:44:20;;;;;;;4.20;0.90;;;33.00;27.60;;;;;;2235974;56;21013;-73
2022/08/11 11:46:47;;;;;;;1.48;0.65;;;33.00;27.20;;;;;;2335450;55;21038;-72
2022/08/11 11:49:14;;;;;;;2.47;0.70;;;33.00;27.20;;;;;;2266715;55;20989;-73
2022/08/11 11:51:41;;;;;;;1.62;0.60;;;33.10;27.00;;;;;;2490789;55;21144;-72
2022/08/11 11:54:08;;;;;;;1.50;0.60;;;33.10;26.90;;;;;;2316253;55;21116;-73
2022/08/11 11:56:35;;;;;;;1.35;0.70;;;33.20;26.70;;;;;;2337291;54;21489;-72
2022/08/11 12:01:46;;;;;;;2.17;0.80;;;33.20;26.80;;;;;;2262916;56;21818;-72
2022/08/11 12:04:12;;;;;;;1.62;0.70;;;33.20;26.90;;;;;;2488416;54;20941;-72
2022/08/11 12:06:40;;;;;;;2.12;0.73;;;33.30;27.40;;;;;;2265698;56;21037;-73
2022/08/11 12:09:06;;;;;;;1.40;0.60;;;33.30;26.60;;;;;;2290807;55;20965;-74
2022/08/11 12:14:22;;;;;;;2.33;1.00;;;33.40;26.60;;;;;;2259492;56;21449;-73
2022/08/11 12:16:49;;;;;;;1.75;0.82;;;33.40;26.50;;;;;;2264844;56;20921;-72
2022/08/11 12:19:17;;;;;;;1.67;0.75;;;33.50;26.40;;;;;;2269421;56;20986;-72
2022/08/11 12:27:20;;;;;;;1.40;0.70;;;33.70;26.00;;;;;;2296425;55;21045;-72
2022/08/11 12:29:46;;;;;;;;;;;33.70;25.40;;;;;;2267968;56;21033;-72
2022/08/11 12:32:17;;;;;;;0.85;0.45;;;33.70;25.70;;;;;;2263537;56;20130;-72
2022/08/11 12:34:43;;;;;;;1.37;0.60;;;33.80;25.60;;;;;;2262682;56;21316;-71
2022/08/11 12:37:11;;;;;;;2.03;0.88;;;33.80;25.80;;;;;;2413143;54;20993;-72
2022/08/11 12:45:30;;;;;;;1.83;0.80;;;33.90;25.10;;;;;;2260920;56;20969;-74
2022/08/11 12:53:58;;;;;;;2.95;0.90;;;34.00;24.80;;;;;;2481275;55;21004;-73
2022/08/11 13:04:51;;;;;;;3.40;0.90;;;34.00;24.30;;;;;;2292402;55;21060;-72
2022/08/11 13:07:17;;;;;;;2.00;0.80;;;34.10;24.20;;;;;;2309660;55;20980;-72
2022/08/11 13:09:44;;;;;;;2.28;0.80;;;34.10;24.40;;;;;;2488626;55;21036;-72
2022/08/11 13:14:55;;;;;;;0.98;0.47;;;34.10;24.00;;;;;;2261706;56;21040;-74
2022/08/11 13:17:22;;;;;;;2.80;0.70;;;34.20;24.10;;;;;;2268754;56;21756;-72
2022/08/11 13:19:48;;;;;;;1.73;0.85;;;34.20;24.30;;;;;;2349075;55;21041;-74
2022/08/11 13:22:24;;;;;;;2.92;0.95;;;34.30;23.90;;;;;;2267169;56;20952;-74
2022/08/11 13:24:51;;;;;;;1.83;0.60;;;34.30;23.20;;;;;;2287156;55;20958;-71
2022/08/11 13:27:17;;;;;;;1.80;0.90;;;34.30;23.70;;;;;;2266611;55;20949;-72
2022/08/11 13:29:45;;;;;;;2.30;0.90;;;34.30;23.50;;;;;;2320628;55;21024;-71
2022/08/11 13:32:12;;;;;;;1.90;0.80;;;34.30;23.40;;;;;;2265907;56;20969;-72
2022/08/11 13:34:41;;;;;;;1.58;0.60;;;34.30;23.60;;;;;;2450514;55;21021;-72
2022/08/11 13:37:09;;;;;;;2.22;0.80;;;34.30;23.50;;;;;;2266557;56;21024;-75
2022/08/11 13:39:35;;;;;;;1.67;0.82;;;34.40;23.40;;;;;;2266632;55;21081;-72
2022/08/11 13:42:03;;;;;;;2.37;0.70;;;34.40;23.30;;;;;;2265610;55;20942;-72
2022/08/11 13:44:34;;;;;;;1.40;0.75;;;34.50;23.10;;;;;;2258204;56;20980;-73
2022/08/11 13:47:05;;;;;;;1.52;0.75;;;34.50;23.10;;;;;;2337005;54;21085;-73
2022/08/11 13:49:34;;;;;;;2.00;0.90;;;34.50;22.80;;;;;;2389405;55;21454;-73
2022/08/11 13:52:01;;;;;;;1.87;0.75;;;34.50;22.70;;;;;;2265808;56;21060;-72
2022/08/11 13:54:30;;;;;;;1.60;0.70;;;34.50;22.70;;;;;;2263081;56;20969;-72
2022/08/11 13:56:59;;;;;;;2.80;0.77;;;34.60;22.70;;;;;;2264860;56;21780;-75
2022/08/11 13:59:26;;;;;;;2.78;0.68;;;34.60;22.80;;;;;;2488144;55;21121;-74
2022/08/11 14:01:55;;;;;;;2.30;0.90;;;34.60;22.80;;;;;;2265856;55;20985;-72
2022/08/11 14:04:32;;;;;;;1.30;0.52;;;34.60;23.10;;;;;;2284715;55;21008;-74
2022/08/11 14:07:04;;;;;;;1.92;0.55;;;34.60;22.90;;;;;;2262254;56;20973;-71
2022/08/11 14:09:34;;;;;;;1.30;0.52;;;34.70;23.30;;;;;;2336276;55;21037;-74
2022/08/11 14:14:59;;;;;;;1.80;0.70;;;34.80;22.80;;;;;;2272154;55;21884;-74
2022/08/11 14:17:28;;;;;;;1.90;0.70;;;34.90;22.90;;;;;;2263143;55;21517;-73
2022/08/11 14:19:56;;;;;;;1.65;0.70;;;34.90;22.80;;;;;;2487863;55;21036;-71
2022/08/11 14:22:22;;;;;;;1.48;0.60;;;35.00;22.70;;;;;;2265125;56;21028;-72
2022/08/11 14:24:50;;;;;;;1.35;0.55;;;35.00;22.70;;;;;;2487158;55;20938;-73
2022/08/11 14:27:17;;;;;;;1.23;0.52;;;35.10;22.50;;;;;;2265070;56;21093;-72
2022/08/11 14:29:44;;;;;;;1.45;0.65;;;35.20;22.60;;;;;;2375598;55;20949;-72
2022/08/11 14:32:13;;;;;;;1.62;0.62;;;35.20;22.20;;;;;;2265224;56;20957;-73
2022/08/11 14:34:40;;;;;;;2.47;0.80;;;35.30;21.90;;;;;;2262952;55;20949;-74
2022/08/11 14:37:20;;;;;;;1.62;0.77;;;35.30;21.70;;;;;;2265194;56;20937;-74
2022/08/11 14:39:50;;;;;;;1.60;0.60;;;35.30;21.70;;;;;;2312721;55;21037;-73
2022/08/11 14:47:20;;;;;;;1.35;0.55;;;35.20;21.80;;;;;;2269091;55;21012;-72
2022/08/11 14:49:47;;;;;;;1.62;0.73;;;35.40;22.00;;;;;;2245669;56;21113;-74
2022/08/11 14:52:14;;;;;;;2.15;0.80;;;35.40;22.30;;;;;;2451142;55;21005;-74
2022/08/11 14:57:30;;;;;;;1.48;0.65;;;35.50;22.30;;;;;;2372119;55;20972;-72
2022/08/11 15:00:00;;;;;;;2.15;0.70;;;35.50;22.10;;;;;;2265205;56;21097;-74
2022/08/11 15:05:11;;;;;;;1.73;0.70;;;35.60;21.90;;;;;;2269712;55;20973;-72
2022/08/11 15:07:38;;;;;;;1.30;0.60;;;35.60;21.90;;;;;;2268738;56;22140;-72
2022/08/11 15:10:06;;;;;;;1.70;0.80;;;35.60;21.60;;;;;;2260692;56;20984;-72
2022/08/11 15:12:40;;;;;;;1.50;0.57;;;35.60;21.50;;;;;;2290520;55;20972;-74
2022/08/11 15:17:52;;;;;;;1.75;0.70;;;35.60;21.40;;;;;;2368350;55;21068;-72
2022/08/11 15:25:56;;;;;;;2.47;0.80;;;35.60;21.10;;;;;;2266021;56;20988;-73
2022/08/11 15:46:40;;;;;;;2.15;0.60;;;35.40;21.00;;;;;;2439417;54;21072;-71
2022/08/11 15:49:12;;;;;;;1.50;0.68;;;35.40;21.10;;;;;;2264510;56;21051;-73
2022/08/11 15:51:46;;;;;;;1.42;0.60;;;35.40;21.30;;;;;;2262605;56;21548;-73
2022/08/11 15:54:17;;;;;;;1.58;0.60;;;35.30;21.40;;;;;;2263329;56;20988;-71
2022/08/11 15:56:47;;;;;;;1.70;0.80;;;35.30;21.20;;;;;;2286864;55;21021;-73
2022/08/11 16:04:45;;;;;;;1.12;0.50;;;35.20;21.20;;;;;;2264785;56;20989;-70
2022/08/11 16:07:14;;;;;;;1.58;0.68;;;35.10;21.10;;;;;;2438127;54;21475;-72
2022/08/11 16:10:20;;;;;;;1.10;0.60;;;35.10;21.00;;;;;;2244153;56;21029;-74
2022/08/11 16:18:55;;;;;;;0.95;0.35;;;35.10;21.10;;;;;;2261587;56;20965;-73
2022/08/11 16:21:24;;;;;;;1.90;0.80;;;35.10;21.20;;;;;;2487343;54;21051;-74
2022/08/11 16:23:51;;;;;;;1.95;0.70;;;35.00;21.10;;;;;;2317512;55;21065;-73
2022/08/11 16:26:23;;;;;;;1.73;0.62;;;35.00;21.60;;;;;;2268763;56;20981;-73
2022/08/11 16:28:56;;;;;;;1.58;0.68;;;34.90;21.10;;;;;;2271285;56;20974;-77
2022/08/11 16:31:23;;;;;;;3.03;0.68;;;34.90;21.10;;;;;;2266051;56;20974;-74
2022/08/11 16:33:50;;;;;;;1.67;0.70;;;34.90;21.00;;;;;;2271924;55;21058;-74
2022/08/11 16:39:05;;;;;;;1.62;0.70;;;34.80;20.90;;;;;;2271057;55;20993;-74
2022/08/11 16:47:09;;;;;;;1.77;0.65;;;34.70;21.20;;;;;;2269934;55;21155;-76
2022/08/11 16:49:37;;;;;;;1.52;0.60;;;34.70;21.20;;;;;;2265024;56;21449;-73
2022/08/11 16:52:10;;;;;;;1.42;0.60;;;34.60;21.10;;;;;;2486423;54;21156;-74
2022/08/11 16:54:37;;;;;;;1.62;0.65;;;34.60;21.10;;;;;;2260431;56;20953;-73
2022/08/11 16:59:50;;;;;;;0.95;0.43;;;34.60;21.30;;;;;;2265116;56;21028;-74
2022/08/11 17:13:51;;;;;;;1.27;0.60;;;34.50;21.10;;;;;;2338500;55;21748;-73
2022/08/11 17:16:24;;;;;;;1.60;0.60;;;34.50;21.20;;;;;;2264916;55;21433;-74
2022/08/11 17:19:00;;;;;;;1.10;0.50;;;34.50;21.20;;;;;;2286280;55;20949;-74
2022/08/11 17:24:42;;;;;;;1.20;0.52;;;34.40;21.30;;;;;;2388860;54;21473;-75
2022/08/11 17:27:12;;;;;;;1.48;0.70;;;34.40;21.10;;;;;;2261619;55;21004;-74
2022/08/11 17:29:51;;;;;;;2.70;0.70;;;34.30;21.20;;;;;;2298192;55;20887;-72
2022/08/11 17:50:12;;;;;;;2.37;0.65;;;34.10;21.10;;;;;;2266318;55;21025;-72
2022/08/11 18:00:54;;;;;;;1.23;0.62;;;33.90;21.30;;;;;;2257700;56;20936;-74
2022/08/11 18:03:33;;;;;;;1.67;0.70;;;33.80;21.30;;;;;;2269732;55;21006;-72
2022/08/11 18:06:01;;;;;;;1.80;0.80;;;33.80;21.40;;;;;;2267825;56;21014;-72
